createdAt,value
2018-06-25T00:02:05.298Z,3.07
2018-06-25T00:05:30.000Z,3.20
2018-06-25T00:08:54.637Z,3.00
2018-06-25T00:12:19.325Z,2.97
2018-06-25T00:15:44.012Z,2.87
2018-06-25T00:19:08.706Z,3.10
2018-06-25T00:22:33.360Z,3.10
2018-06-25T00:25:58.010Z,3.10
2018-06-25T00:29:22.704Z,3.23
2018-06-25T00:32:47.410Z,3.07
2018-06-25T00:36:12.094Z,3.20
2018-06-25T00:39:36.842Z,3.23
2018-06-25T00:43:01.585Z,3.00
2018-06-25T00:46:27.260Z,3.10
2018-06-25T00:49:52.068Z,3.23
2018-06-25T00:53:16.748Z,3.10
2018-06-25T00:56:41.398Z,2.93
2018-06-25T01:00:06.132Z,2.93
2018-06-25T01:03:30.823Z,3.27
2018-06-25T01:06:55.514Z,3.00
2018-06-25T01:10:21.168Z,3.13
2018-06-25T01:13:45.832Z,3.10
2018-06-25T01:17:10.952Z,3.10
2018-06-25T01:20:35.725Z,3.20
2018-06-25T01:24:00.520Z,3.30
2018-06-25T01:27:25.178Z,3.57
2018-06-25T01:30:49.998Z,3.23
2018-06-25T01:34:14.587Z,3.07
2018-06-25T01:37:39.304Z,3.20
2018-06-25T01:41:04.058Z,3.70
2018-06-25T01:44:28.839Z,2.93
2018-06-25T01:47:53.471Z,3.17
2018-06-25T01:51:18.136Z,3.43
2018-06-25T01:54:42.904Z,3.43
2018-06-25T01:58:07.698Z,3.30
2018-06-25T02:01:32.384Z,3.37
2018-06-25T02:04:57.131Z,3.37
2018-06-25T02:08:21.729Z,3.60
2018-06-25T02:11:46.365Z,3.57
2018-06-25T02:15:11.343Z,3.57
2018-06-25T02:18:36.096Z,3.67
2018-06-25T02:22:00.710Z,3.80
2018-06-25T02:25:25.475Z,3.80
2018-06-25T02:28:50.166Z,3.60
2018-06-25T02:32:14.794Z,4.23
2018-06-25T02:35:39.442Z,3.40
2018-06-25T02:39:04.316Z,3.70
2018-06-25T02:42:29.022Z,4.43
2018-06-25T02:45:53.351Z,4.10
2018-06-25T02:49:17.628Z,4.17
2018-06-25T02:52:42.267Z,4.30
2018-06-25T02:56:06.935Z,4.60
2018-06-25T02:59:31.567Z,4.70
2018-06-25T03:02:56.271Z,4.37
2018-06-25T03:06:20.963Z,4.37
2018-06-25T03:09:45.675Z,4.27
2018-06-25T03:13:10.335Z,4.50
2018-06-25T03:16:35.485Z,4.03
2018-06-25T03:20:00.189Z,4.60
2018-06-25T03:23:24.871Z,4.60
2018-06-25T03:26:49.617Z,4.60
2018-06-25T03:30:15.377Z,4.47
2018-06-25T03:33:40.078Z,4.50
2018-06-25T03:37:04.881Z,4.70
2018-06-25T03:40:29.518Z,4.43
2018-06-25T03:43:54.221Z,5.40
2018-06-25T03:47:18.856Z,4.93
2018-06-25T03:50:43.474Z,5.33
2018-06-25T03:54:08.131Z,4.90
2018-06-25T03:57:32.797Z,5.30
2018-06-25T04:00:57.627Z,4.73
2018-06-25T04:04:22.487Z,4.80
2018-06-25T04:07:47.486Z,5.73
2018-06-25T04:11:12.209Z,5.40
2018-06-25T04:14:36.869Z,4.90
2018-06-25T04:18:01.697Z,5.10
2018-06-25T04:21:26.452Z,5.43
2018-06-25T04:24:51.165Z,5.87
2018-06-25T04:28:15.968Z,6.33
2018-06-25T04:31:40.762Z,5.83
2018-06-25T04:35:05.477Z,5.13
2018-06-25T04:38:30.328Z,5.53
2018-06-25T04:41:55.176Z,6.43
2018-06-25T04:45:20.961Z,5.90
2018-06-25T04:48:45.722Z,6.23
2018-06-25T04:52:10.487Z,5.97
2018-06-25T04:55:35.350Z,6.10
2018-06-25T04:59:00.166Z,5.83
2018-06-25T05:02:24.995Z,6.30
2018-06-25T05:05:49.693Z,6.87
2018-06-25T05:09:14.514Z,6.30
2018-06-25T05:12:38.896Z,6.83
2018-06-25T05:16:03.272Z,7.13
2018-06-25T05:19:27.962Z,6.33
2018-06-25T05:22:52.777Z,6.43
2018-06-25T05:26:17.484Z,7.13
2018-06-25T05:29:42.176Z,6.87
2018-06-25T05:33:07.464Z,7.40
2018-06-25T05:36:32.170Z,7.30
2018-06-25T05:39:56.964Z,7.47
2018-06-25T05:43:21.668Z,7.23
2018-06-25T05:46:46.412Z,7.67
2018-06-25T05:50:11.260Z,7.40
2018-06-25T05:53:36.128Z,7.50
2018-06-25T05:57:00.832Z,8.13
2018-06-25T06:00:25.555Z,8.30
2018-06-25T06:03:50.224Z,7.80
2018-06-25T06:07:14.985Z,7.93
2018-06-25T06:10:39.766Z,8.17
2018-06-25T06:14:05.311Z,7.77
2018-06-25T06:17:30.161Z,7.57
2018-06-25T06:20:54.918Z,8.00
2018-06-25T06:24:19.744Z,7.83
2018-06-25T06:27:44.385Z,7.77
2018-06-25T06:31:09.072Z,7.80
2018-06-25T06:34:33.845Z,7.97
2018-06-25T06:37:58.591Z,8.30
2018-06-25T06:41:23.354Z,7.73
2018-06-25T06:44:48.112Z,8.67
2018-06-25T06:48:12.807Z,8.50
2018-06-25T06:51:37.397Z,8.60
2018-06-25T06:55:02.101Z,8.77
2018-06-25T06:58:26.891Z,8.10
2018-06-25T07:01:51.594Z,8.57
2018-06-25T07:05:16.383Z,8.50
2018-06-25T07:08:41.350Z,8.70
2018-06-25T07:12:06.075Z,8.63
2018-06-25T07:15:30.901Z,9.50
2018-06-25T07:18:56.360Z,9.27
2018-06-25T07:22:21.017Z,9.10
2018-06-25T07:25:45.805Z,8.70
2018-06-25T07:29:10.501Z,8.80
2018-06-25T07:32:35.357Z,8.20
2018-06-25T07:36:00.124Z,9.23
2018-06-25T07:39:24.921Z,9.00
2018-06-25T07:42:49.754Z,9.50
2018-06-25T07:46:14.703Z,9.70
2018-06-25T07:49:39.419Z,8.30
2018-06-25T07:53:04.185Z,9.80
2018-06-25T07:56:28.904Z,9.57
2018-06-25T07:59:53.623Z,9.77
2018-06-25T08:03:18.310Z,10.37
2018-06-25T08:06:43.205Z,9.73
2018-06-25T08:10:08.097Z,10.27
2018-06-25T08:13:32.641Z,9.57
2018-06-25T08:16:57.360Z,10.27
2018-06-25T08:20:22.184Z,10.23
2018-06-25T08:23:46.843Z,10.13
2018-06-25T08:27:11.511Z,11.60
2018-06-25T08:30:36.239Z,11.40
2018-06-25T08:34:01.244Z,11.77
2018-06-25T08:37:25.925Z,11.17
2018-06-25T08:40:50.635Z,10.90
2018-06-25T08:44:15.343Z,10.77
2018-06-25T08:47:39.995Z,11.10
2018-06-25T08:51:05.378Z,10.57
2018-06-25T08:54:30.092Z,10.50
2018-06-25T08:57:54.753Z,9.87
2018-06-25T09:01:19.723Z,10.20
2018-06-25T09:04:44.469Z,9.83
2018-06-25T09:08:09.272Z,8.80
2018-06-25T09:11:33.931Z,10.03
2018-06-25T09:14:58.635Z,9.87
2018-06-25T09:18:23.994Z,9.23
2018-06-25T09:21:48.677Z,9.73
2018-06-25T09:25:13.349Z,8.83
2018-06-25T09:28:38.113Z,8.13
2018-06-25T09:32:02.799Z,8.17
2018-06-25T09:35:27.483Z,8.10
2018-06-25T09:38:52.129Z,7.10
2018-06-25T09:42:16.803Z,6.20
2018-06-25T09:45:41.536Z,5.93
2018-06-25T09:49:06.287Z,6.37
2018-06-25T09:52:30.925Z,6.47
2018-06-25T09:55:55.635Z,5.63
2018-06-25T09:59:20.245Z,5.43
2018-06-25T10:02:44.945Z,5.73
2018-06-25T10:06:09.629Z,6.43
2018-06-25T10:09:35.237Z,5.80
2018-06-25T10:12:59.949Z,5.77
2018-06-25T10:16:24.853Z,5.73
2018-06-25T10:19:49.561Z,6.20
2018-06-25T10:23:14.295Z,6.60
2018-06-25T10:26:39.109Z,5.83
2018-06-25T10:30:03.945Z,5.80
2018-06-25T10:33:28.805Z,5.23
2018-06-25T10:36:53.538Z,4.50
2018-06-25T10:40:18.243Z,3.87
2018-06-25T10:43:42.911Z,3.97
2018-06-25T10:47:07.677Z,3.30
2018-06-25T10:50:32.447Z,3.80
2018-06-25T10:53:57.116Z,4.50
2018-06-25T10:57:22.351Z,4.10
2018-06-25T11:00:47.116Z,4.77
2018-06-25T11:04:11.887Z,4.93
2018-06-25T11:07:36.983Z,4.40
2018-06-25T11:11:01.830Z,4.23
2018-06-25T11:14:26.490Z,4.50
2018-06-25T11:17:51.181Z,4.70
2018-06-25T11:21:16.061Z,4.50
2018-06-25T11:24:40.401Z,4.10
2018-06-25T11:28:05.580Z,4.40
2018-06-25T11:31:30.302Z,3.90
2018-06-25T11:34:54.945Z,3.13
2018-06-25T11:38:19.701Z,3.73
2018-06-25T11:41:44.455Z,3.47
2018-06-25T11:45:09.089Z,3.90
2018-06-25T11:48:33.787Z,3.17
2018-06-25T11:51:58.773Z,2.60
2018-06-25T11:55:24.820Z,3.20
2018-06-25T11:58:49.625Z,3.30
2018-06-25T12:02:14.465Z,3.53
2018-06-25T12:05:39.119Z,3.70
2018-06-25T12:09:04.088Z,4.00
2018-06-25T12:12:28.795Z,4.40
2018-06-25T12:15:54.216Z,3.20
2018-06-25T12:19:18.861Z,3.13
2018-06-25T12:22:43.601Z,2.60
2018-06-25T12:26:08.251Z,3.20
2018-06-25T12:29:33.071Z,2.70
2018-06-25T12:32:57.867Z,2.90
2018-06-25T12:36:22.507Z,2.60
2018-06-25T12:39:47.308Z,2.77
2018-06-25T12:43:12.108Z,2.83
2018-06-25T12:46:37.123Z,3.10
2018-06-25T12:50:01.778Z,3.20
2018-06-25T12:53:26.422Z,2.90
2018-06-25T12:56:50.835Z,2.50
2018-06-25T13:00:15.613Z,2.63
2018-06-25T13:03:40.235Z,2.60
2018-06-25T13:07:05.031Z,2.60
2018-06-25T13:10:29.685Z,2.37
2018-06-25T13:13:54.335Z,2.50
2018-06-25T13:17:18.936Z,2.37
2018-06-25T13:20:43.686Z,2.07
2018-06-25T13:24:07.944Z,1.90
2018-06-25T13:27:32.613Z,2.43
2018-06-25T13:30:57.253Z,2.10
2018-06-25T13:34:21.940Z,2.37
2018-06-25T13:37:46.686Z,2.10
2018-06-25T13:41:11.359Z,1.90
2018-06-25T13:44:36.301Z,1.90
2018-06-25T13:48:00.609Z,1.97
2018-06-25T13:51:25.279Z,1.60
2018-06-25T13:54:50.021Z,1.80
2018-06-25T13:58:14.766Z,1.70
2018-06-25T14:01:39.876Z,2.20
2018-06-25T14:05:04.232Z,1.90
2018-06-25T14:08:28.997Z,1.80
2018-06-25T14:11:53.717Z,1.60
2018-06-25T14:15:18.411Z,1.80
2018-06-25T14:18:43.170Z,1.50
2018-06-25T14:22:07.882Z,1.50
2018-06-25T14:25:36.557Z,1.67
2018-06-25T14:29:01.287Z,1.60
2018-06-25T14:32:31.239Z,1.67
2018-06-25T14:35:55.882Z,1.70
2018-06-25T14:39:20.654Z,1.40
2018-06-25T14:42:45.324Z,1.83
2018-06-25T14:46:10.161Z,1.90
2018-06-25T14:49:34.841Z,1.70
2018-06-25T14:52:59.471Z,1.70
2018-06-25T14:56:24.160Z,1.60
2018-06-25T14:59:48.472Z,1.77
2018-06-25T15:03:13.091Z,1.70
2018-06-25T15:06:37.851Z,1.90
2018-06-25T15:10:02.613Z,1.70
2018-06-25T15:13:27.405Z,1.87
2018-06-25T15:16:51.789Z,1.53
2018-06-25T15:20:16.454Z,1.80
2018-06-25T15:23:41.135Z,1.60
2018-06-25T15:27:06.119Z,1.53
2018-06-25T15:30:30.720Z,1.70
2018-06-25T15:33:55.061Z,1.60
2018-06-25T15:37:20.327Z,2.10
2018-06-25T15:40:45.051Z,1.60
2018-06-25T15:44:09.853Z,1.60
2018-06-25T15:47:34.182Z,1.70
2018-06-25T15:50:58.878Z,1.60
2018-06-25T15:54:23.639Z,1.90
2018-06-25T15:57:48.315Z,1.60
2018-06-25T16:01:13.599Z,1.40
2018-06-25T16:04:38.333Z,1.47
2018-06-25T16:08:03.014Z,1.43
2018-06-25T16:11:27.335Z,1.30
2018-06-25T16:14:51.657Z,1.50
2018-06-25T16:18:16.456Z,1.40
2018-06-25T16:21:41.191Z,1.37
2018-06-25T16:25:06.570Z,1.20
2018-06-25T16:28:31.313Z,1.40
2018-06-25T16:31:56.224Z,1.30
2018-06-25T16:35:20.883Z,1.13
2018-06-25T16:38:45.520Z,1.27
2018-06-25T16:42:10.233Z,5.60
2018-06-25T16:45:34.907Z,1.30
2018-06-25T16:48:59.711Z,1.50
2018-06-25T16:52:24.400Z,1.53
2018-06-25T16:55:50.037Z,1.30
2018-06-25T16:59:14.783Z,1.93
2018-06-25T17:02:39.474Z,1.73
2018-06-25T17:06:03.870Z,1.47
2018-06-25T17:09:28.583Z,1.40
2018-06-25T17:12:53.217Z,1.70
2018-06-25T17:16:18.219Z,1.90
2018-06-25T17:19:42.517Z,1.90
2018-06-25T17:23:07.625Z,1.60
2018-06-25T17:26:31.986Z,1.77
2018-06-25T17:29:56.344Z,5.40
2018-06-25T17:33:20.964Z,1.70
2018-06-25T17:36:45.325Z,1.80
2018-06-25T17:40:10.096Z,1.37
2018-06-25T17:43:35.000Z,1.50
2018-06-25T17:47:00.335Z,1.20
2018-06-25T17:50:27.149Z,1.40
2018-06-25T17:53:52.049Z,1.57
2018-06-25T17:57:16.938Z,1.40
2018-06-25T18:00:41.381Z,1.40
2018-06-25T18:04:06.028Z,1.40
2018-06-25T18:07:30.947Z,1.40
2018-06-25T18:10:56.032Z,1.57
2018-06-25T18:14:21.723Z,1.33
2018-06-25T18:17:46.421Z,1.50
2018-06-25T18:21:11.277Z,1.37
2018-06-25T18:24:35.959Z,2.40
2018-06-25T18:28:00.830Z,1.40
2018-06-25T18:31:25.635Z,1.90
2018-06-25T18:34:50.411Z,1.77
2018-06-25T18:38:14.931Z,1.30
2018-06-25T18:41:40.863Z,1.40
2018-06-25T18:45:05.392Z,1.60
2018-06-25T18:48:30.069Z,1.53
2018-06-25T18:51:54.787Z,1.50
2018-06-25T18:55:19.577Z,1.60
2018-06-25T18:58:44.436Z,1.53
2018-06-25T19:02:09.160Z,1.40
2018-06-25T19:05:34.028Z,1.73
2018-06-25T19:08:59.771Z,1.73
2018-06-25T19:12:24.517Z,1.40
2018-06-25T19:15:49.294Z,1.30
2018-06-25T19:19:14.201Z,1.40
2018-06-25T19:22:40.924Z,1.50
2018-06-25T19:26:06.213Z,1.50
2018-06-25T19:29:31.073Z,1.30
2018-06-25T19:32:55.769Z,1.60
2018-06-25T19:36:21.035Z,1.60
2018-06-25T19:39:45.776Z,1.60
2018-06-25T19:43:10.477Z,1.70
2018-06-25T19:46:35.250Z,1.53
2018-06-25T19:49:59.972Z,1.60
2018-06-25T19:53:24.677Z,1.67
2018-06-25T19:56:49.449Z,1.50
2018-06-25T20:00:14.224Z,1.70
2018-06-25T20:03:38.881Z,1.63
2018-06-25T20:07:03.607Z,1.53
2018-06-25T20:10:28.583Z,2.20
2018-06-25T20:13:53.318Z,2.07
2018-06-25T20:17:18.289Z,1.73
2018-06-25T20:20:45.157Z,1.67
2018-06-25T20:24:09.689Z,2.20
2018-06-25T20:27:34.074Z,1.80
2018-06-25T20:30:58.860Z,1.63
2018-06-25T20:34:24.295Z,1.83
2018-06-25T20:37:49.032Z,1.57
2018-06-25T20:41:13.444Z,1.77
2018-06-25T20:44:38.173Z,1.73
2018-06-25T20:48:02.880Z,2.20
2018-06-25T20:51:27.628Z,2.03
2018-06-25T20:54:52.260Z,2.00
2018-06-25T20:58:16.895Z,2.00
2018-06-25T21:01:41.249Z,2.23
2018-06-25T21:05:06.278Z,2.13
2018-06-25T21:08:30.918Z,2.50
2018-06-25T21:11:55.542Z,2.50
2018-06-25T21:15:20.167Z,2.40
2018-06-25T21:18:44.913Z,2.00
2018-06-25T21:22:09.626Z,2.53
2018-06-25T21:25:34.490Z,2.53
2018-06-25T21:28:59.206Z,2.30
2018-06-25T21:32:23.950Z,2.43
2018-06-25T21:35:48.694Z,2.10
2018-06-25T21:39:13.471Z,2.00
2018-06-25T21:42:38.097Z,2.43
2018-06-25T21:46:02.757Z,2.43
2018-06-25T21:49:27.590Z,2.53
2018-06-25T21:52:52.279Z,2.00
2018-06-25T21:56:16.949Z,2.40
2018-06-25T21:59:41.605Z,2.20
2018-06-25T22:03:06.294Z,2.30
2018-06-25T22:06:30.999Z,2.37
2018-06-25T22:09:55.331Z,2.40
2018-06-25T22:13:20.033Z,2.30
2018-06-25T22:16:44.751Z,2.70
2018-06-25T22:20:09.539Z,2.20
2018-06-25T22:23:34.339Z,2.43
2018-06-25T22:26:59.322Z,2.20
2018-06-25T22:30:24.291Z,2.50
2018-06-25T22:33:48.548Z,2.23
2018-06-25T22:37:13.447Z,2.40
2018-06-25T22:40:39.179Z,2.20
2018-06-25T22:44:14.750Z,2.33
2018-06-25T22:47:39.430Z,2.40
2018-06-25T22:51:04.154Z,2.50
2018-06-25T22:54:28.817Z,2.03
2018-06-25T22:57:53.878Z,2.03
2018-06-25T23:01:18.569Z,2.00
2018-06-25T23:04:43.227Z,2.27
2018-06-25T23:08:07.538Z,1.83
2018-06-25T23:11:32.179Z,2.23
2018-06-25T23:14:56.816Z,2.10
2018-06-25T23:18:21.423Z,2.00
2018-06-25T23:21:46.057Z,1.90
2018-06-25T23:25:10.726Z,2.20
2018-06-25T23:28:35.427Z,1.90
2018-06-25T23:32:00.126Z,2.20
2018-06-25T23:35:24.847Z,2.10
2018-06-25T23:38:49.527Z,1.97
2018-06-25T23:42:14.237Z,1.80
2018-06-25T23:45:38.983Z,1.87
2018-06-25T23:49:03.744Z,1.80
2018-06-25T23:52:28.429Z,1.90
2018-06-25T23:55:53.061Z,2.40
2018-06-25T23:59:27.221Z,2.00
